Terminal Aerodrome Forecast
Issued by NWS Sioux Falls, SD

Home | Current Version | Previous Version | Text Only | Print | Product List | Glossary Off
Versions: 1 2 3 4 5 6 7 8 9 10 11 12 13 14 15 16 17 18 19 20 21 22 23 24 25 26 27 28 29 30 31 32 33 34 35 36 37 38

000
FTUS43 KFSD 161421 AAA
TAFSUX
TAF AMD
KSUX 161421Z 1614/1712 04005KT P6SM OVC008
      TEMPO 1616/1618 5SM -FZRA BKN005
     FM161800 01007KT 3SM FZRA OVC005
     FM170100 35008KT 2SM -FZRASN OVC003
     FM170500 33011KT P6SM OVC010=

USA.gov is the U.S. government's official web portal to all federal, state and local government web resources and services.